Terminal Aerodrome Forecast
Issued by NWS Wakefield, VA

Home | Current Version | Previous Version | Text Only | Print | Product List | Glossary On
Versions: 1 2 3 4 5 6 7 8 9 10 11 12 13 14 15 16 17 18 19 20 21 22 23 24
000
FTUS41 KAKQ 031700
TAFSBY
TAF
KSBY 031736Z 0318/0418 18009KT P6SM BKN050 BKN100
     FM032100 19011KT 5SM -SHRA BKN012 OVC025
     FM040200 20013G20KT 4SM -SHRA BR OVC004
     FM041000 24010KT 3SM -RA BR OVC004=

USA.gov is the U.S. government's official web portal to all federal, state and local government web resources and services.